sensor_id;sensor_type;location;lat;lon;timestamp;temperature;humidity
21805;DHT22;11064;47.102;15.452;2022-11-03T05:02:39;11.20;99.90
21805;DHT22;11064;47.102;15.452;2022-11-03T05:05:23;11.10;99.90
21805;DHT22;11064;47.102;15.452;2022-11-03T05:07:54;11.10;99.90
21805;DHT22;11064;47.102;15.452;2022-11-03T05:10:26;11.10;99.90
21805;DHT22;11064;47.102;15.452;2022-11-03T05:12:54;11.10;99.90
21805;DHT22;11064;47.102;15.452;2022-11-03T05:15:29;11.20;99.90
21805;DHT22;11064;47.102;15.452;2022-11-03T05:17:57;11.10;99.90
21805;DHT22;11064;47.102;15.452;2022-11-03T05:20:41;11.10;99.90
21805;DHT22;11064;47.102;15.452;2022-11-03T05:23:10;11.10;99.90
21805;DHT22;11064;47.102;15.452;2022-11-03T05:25:42;11.10;99.90
21805;DHT22;11064;47.102;15.452;2022-11-03T05:30:42;11.00;99.90
21805;DHT22;11064;47.102;15.452;2022-11-03T05:33:27;11.10;99.90
21805;DHT22;11064;47.102;15.452;2022-11-03T05:35:55;11.10;99.90
21805;DHT22;11064;47.102;15.452;2022-11-03T05:38:26;11.10;99.90
21805;DHT22;11064;47.102;15.452;2022-11-03T05:40:53;11.10;99.90
21805;DHT22;11064;47.102;15.452;2022-11-03T05:43:20;11.10;99.90
21805;DHT22;11064;47.102;15.452;2022-11-03T05:45:48;11.10;99.90
21805;DHT22;11064;47.102;15.452;2022-11-03T05:50:54;11.10;99.90
21805;DHT22;11064;47.102;15.452;2022-11-03T05:53:28;11.00;99.90
21805;DHT22;11064;47.102;15.452;2022-11-03T05:55:57;11.00;99.90
21805;DHT22;11064;47.102;15.452;2022-11-03T05:58:30;11.00;99.90
21805;DHT22;11064;47.102;15.452;2022-11-03T06:00:59;10.90;99.90
21805;DHT22;11064;47.102;15.452;2022-11-03T06:03:29;11.00;99.90
21805;DHT22;11064;47.102;15.452;2022-11-03T06:05:56;11.00;99.90
21805;DHT22;11064;47.102;15.452;2022-11-03T06:08:32;11.00;99.90
21805;DHT22;11064;47.102;15.452;2022-11-03T06:11:00;11.10;99.90
21805;DHT22;11064;47.102;15.452;2022-11-03T06:13:36;11.20;99.90
21805;DHT22;11064;47.102;15.452;2022-11-03T06:18:35;11.30;99.90
21805;DHT22;11064;47.102;15.452;2022-11-03T06:21:18;11.40;99.90
21805;DHT22;11064;47.102;15.452;2022-11-03T06:23:46;11.50;99.90
21805;DHT22;11064;47.102;15.452;2022-11-03T06:26:19;11.60;99.90
21805;DHT22;11064;47.102;15.452;2022-11-03T06:28:46;11.50;99.90
21805;DHT22;11064;47.102;15.452;2022-11-03T06:31:32;11.60;99.90
21805;DHT22;11064;47.102;15.452;2022-11-03T06:33:58;11.60;99.90
21805;DHT22;11064;47.102;15.452;2022-11-03T06:36:29;11.60;99.90
21805;DHT22;11064;47.102;15.452;2022-11-03T06:39:07;11.60;99.90
21805;DHT22;11064;47.102;15.452;2022-11-03T06:41:35;11.60;99.90
21805;DHT22;11064;47.102;15.452;2022-11-03T06:44:14;11.60;99.90
21805;DHT22;11064;47.102;15.452;2022-11-03T06:46:42;11.70;99.90
21805;DHT22;11064;47.102;15.452;2022-11-03T06:49:41;11.70;99.90
21805;DHT22;11064;47.102;15.452;2022-11-03T06:57:47;11.90;99.90
21805;DHT22;11064;47.102;15.452;2022-11-03T07:00:22;12.00;99.90
21805;DHT22;11064;47.102;15.452;2022-11-03T07:05:28;12.10;99.90
21805;DHT22;11064;47.102;15.452;2022-11-03T07:07:59;12.20;99.90
21805;DHT22;11064;47.102;15.452;2022-11-03T07:10:27;12.40;99.90
21805;DHT22;11064;47.102;15.452;2022-11-03T07:12:54;12.40;99.90
21805;DHT22;11064;47.102;15.452;2022-11-03T07:15:32;12.50;99.90
21805;DHT22;11064;47.102;15.452;2022-11-03T07:18:00;12.50;99.90
21805;DHT22;11064;47.102;15.452;2022-11-03T07:20:27;12.50;99.90
21805;DHT22;11064;47.102;15.452;2022-11-03T07:22:54;12.60;99.90
21805;DHT22;11064;47.102;15.452;2022-11-03T07:25:21;12.80;99.90
21805;DHT22;11064;47.102;15.452;2022-11-03T07:27:49;12.80;99.90
21805;DHT22;11064;47.102;15.452;2022-11-03T07:30:20;12.90;99.90
21805;DHT22;11064;47.102;15.452;2022-11-03T07:32:53;12.90;99.90
21805;DHT22;11064;47.102;15.452;2022-11-03T07:35:40;13.00;99.90
21805;DHT22;11064;47.102;15.452;2022-11-03T07:38:15;12.90;99.90
21805;DHT22;11064;47.102;15.452;2022-11-03T07:40:42;13.00;99.90
21805;DHT22;11064;47.102;15.452;2022-11-03T07:43:35;13.10;99.90
21805;DHT22;11064;47.102;15.452;2022-11-03T07:46:02;13.00;99.90
21805;DHT22;11064;47.102;15.452;2022-11-03T07:48:47;13.10;99.90
21805;DHT22;11064;47.102;15.452;2022-11-03T07:51:21;13.10;99.90
21805;DHT22;11064;47.102;15.452;2022-11-03T07:53:49;13.30;99.90
21805;DHT22;11064;47.102;15.452;2022-11-03T07:56:24;13.40;99.90
21805;DHT22;11064;47.102;15.452;2022-11-03T07:58:58;13.80;99.90
21805;DHT22;11064;47.102;15.452;2022-11-03T08:01:31;14.20;99.90
21805;DHT22;11064;47.102;15.452;2022-11-03T08:04:07;14.50;99.90
21805;DHT22;11064;47.102;15.452;2022-11-03T08:06:34;15.00;99.90
21805;DHT22;11064;47.102;15.452;2022-11-03T08:09:00;15.20;99.90
21805;DHT22;11064;47.102;15.452;2022-11-03T08:11:26;15.40;99.90
21805;DHT22;11064;47.102;15.452;2022-11-03T08:13:52;15.40;99.90
21805;DHT22;11064;47.102;15.452;2022-11-03T08:16:18;15.20;99.90
21805;DHT22;11064;47.102;15.452;2022-11-03T08:18:45;15.40;99.90
21805;DHT22;11064;47.102;15.452;2022-11-03T08:21:11;15.40;99.90
21805;DHT22;11064;47.102;15.452;2022-11-03T08:23:37;15.50;99.90
21805;DHT22;11064;47.102;15.452;2022-11-03T08:26:03;15.60;99.90
21805;DHT22;11064;47.102;15.452;2022-11-03T08:28:29;15.70;99.90
21805;DHT22;11064;47.102;15.452;2022-11-03T08:30:55;15.20;99.90
21805;DHT22;11064;47.102;15.452;2022-11-03T08:33:26;15.30;99.90
21805;DHT22;11064;47.102;15.452;2022-11-03T08:35:53;15.00;99.90
21805;DHT22;11064;47.102;15.452;2022-11-03T08:38:18;15.10;99.90
21805;DHT22;11064;47.102;15.452;2022-11-03T08:40:44;15.20;99.90
21805;DHT22;11064;47.102;15.452;2022-11-03T08:43:10;15.40;99.90
21805;DHT22;11064;47.102;15.452;2022-11-03T08:45:36;15.70;99.90
21805;DHT22;11064;47.102;15.452;2022-11-03T08:48:02;15.60;99.90
21805;DHT22;11064;47.102;15.452;2022-11-03T08:50:28;15.80;99.90
21805;DHT22;11064;47.102;15.452;2022-11-03T08:52:54;15.90;99.90
21805;DHT22;11064;47.102;15.452;2022-11-03T08:55:20;16.00;99.90
21805;DHT22;11064;47.102;15.452;2022-11-03T08:57:46;16.10;99.90
21805;DHT22;11064;47.102;15.452;2022-11-03T09:00:12;16.20;99.90
21805;DHT22;11064;47.102;15.452;2022-11-03T09:02:38;16.00;99.90
21805;DHT22;11064;47.102;15.452;2022-11-03T09:05:04;16.10;99.90
21805;DHT22;11064;47.102;15.452;2022-11-03T09:07:32;15.90;99.90
21805;DHT22;11064;47.102;15.452;2022-11-03T09:09:58;16.00;99.90
21805;DHT22;11064;47.102;15.452;2022-11-03T09:12:23;16.10;99.90
21805;DHT22;11064;47.102;15.452;2022-11-03T09:14:49;15.90;99.90
21805;DHT22;11064;47.102;15.452;2022-11-03T09:17:15;15.80;99.90
21805;DHT22;11064;47.102;15.452;2022-11-03T09:19:41;15.90;99.90
21805;DHT22;11064;47.102;15.452;2022-11-03T09:22:06;15.80;99.90
21805;DHT22;11064;47.102;15.452;2022-11-03T09:24:32;15.80;99.90
21805;DHT22;11064;47.102;15.452;2022-11-03T09:26:58;15.90;99.90
21805;DHT22;11064;47.102;15.452;2022-11-03T09:29:24;16.10;99.90
21805;DHT22;11064;47.102;15.452;2022-11-03T09:31:50;16.30;99.90
21805;DHT22;11064;47.102;15.452;2022-11-03T09:34:15;16.50;99.90
21805;DHT22;11064;47.102;15.452;2022-11-03T09:36:41;16.40;99.90
21805;DHT22;11064;47.102;15.452;2022-11-03T09:39:07;16.50;99.90
21805;DHT22;11064;47.102;15.452;2022-11-03T09:41:33;16.50;99.90
21805;DHT22;11064;47.102;15.452;2022-11-03T09:44:00;16.30;99.90
21805;DHT22;11064;47.102;15.452;2022-11-03T09:46:28;15.90;99.90
21805;DHT22;11064;47.102;15.452;2022-11-03T09:48:55;15.50;99.90
21805;DHT22;11064;47.102;15.452;2022-11-03T09:51:22;15.50;99.90
21805;DHT22;11064;47.102;15.452;2022-11-03T09:53:49;15.60;99.90
21805;DHT22;11064;47.102;15.452;2022-11-03T09:56:18;15.60;99.90
21805;DHT22;11064;47.102;15.452;2022-11-03T09:58:46;15.70;99.90
21805;DHT22;11064;47.102;15.452;2022-11-03T10:01:12;15.80;99.90
21805;DHT22;11064;47.102;15.452;2022-11-03T10:03:37;16.00;99.90
21805;DHT22;11064;47.102;15.452;2022-11-03T10:06:06;16.20;99.90
21805;DHT22;11064;47.102;15.452;2022-11-03T10:08:35;16.30;99.90
21805;DHT22;11064;47.102;15.452;2022-11-03T10:11:02;16.50;99.90
21805;DHT22;11064;47.102;15.452;2022-11-03T10:13:35;16.70;99.90
21805;DHT22;11064;47.102;15.452;2022-11-03T10:16:03;16.50;99.90
21805;DHT22;11064;47.102;15.452;2022-11-03T10:18:31;16.50;99.90
21805;DHT22;11064;47.102;15.452;2022-11-03T10:21:01;16.70;99.90
21805;DHT22;11064;47.102;15.452;2022-11-03T10:23:28;16.30;99.90
21805;DHT22;11064;47.102;15.452;2022-11-03T10:26:07;16.20;99.90
21805;DHT22;11064;47.102;15.452;2022-11-03T10:28:34;15.90;99.90
21805;DHT22;11064;47.102;15.452;2022-11-03T10:31:02;15.40;99.90
21805;DHT22;11064;47.102;15.452;2022-11-03T10:33:32;15.30;99.90
21805;DHT22;11064;47.102;15.452;2022-11-03T10:36:03;15.10;99.90
21805;DHT22;11064;47.102;15.452;2022-11-03T10:38:34;15.00;99.90
21805;DHT22;11064;47.102;15.452;2022-11-03T10:41:20;14.90;99.90
21805;DHT22;11064;47.102;15.452;2022-11-03T10:46:36;15.60;99.90
21805;DHT22;11064;47.102;15.452;2022-11-03T10:49:16;15.70;99.90
21805;DHT22;11064;47.102;15.452;2022-11-03T10:51:48;15.80;99.90
21805;DHT22;11064;47.102;15.452;2022-11-03T10:54:16;16.10;99.90
21805;DHT22;11064;47.102;15.452;2022-11-03T10:56:44;16.50;99.90
21805;DHT22;11064;47.102;15.452;2022-11-03T10:59:32;16.70;99.90
21805;DHT22;11064;47.102;15.452;2022-11-03T11:02:00;17.00;99.90
21805;DHT22;11064;47.102;15.452;2022-11-03T11:04:26;16.70;99.90
21805;DHT22;11064;47.102;15.452;2022-11-03T11:06:52;16.70;99.90
21805;DHT22;11064;47.102;15.452;2022-11-03T11:09:25;16.70;99.90
21805;DHT22;11064;47.102;15.452;2022-11-03T11:12:19;16.70;99.90
21805;DHT22;11064;47.102;15.452;2022-11-03T11:14:55;16.40;99.70
21805;DHT22;11064;47.102;15.452;2022-11-03T11:20:18;17.00;98.90
21805;DHT22;11064;47.102;15.452;2022-11-03T11:22:52;17.00;99.90
21805;DHT22;11064;47.102;15.452;2022-11-03T11:25:18;16.90;98.90
21805;DHT22;11064;47.102;15.452;2022-11-03T11:37:43;17.00;99.60
21805;DHT22;11064;47.102;15.452;2022-11-03T11:48:32;16.80;99.30
21805;DHT22;11064;47.102;15.452;2022-11-03T11:50:59;17.00;99.50
21805;DHT22;11064;47.102;15.452;2022-11-03T11:53:27;17.00;99.30
21805;DHT22;11064;47.102;15.452;2022-11-03T11:55:55;17.00;99.90
21805;DHT22;11064;47.102;15.452;2022-11-03T11:58:51;16.90;99.30
21805;DHT22;11064;47.102;15.452;2022-11-03T12:01:29;16.40;99.90
21805;DHT22;11064;47.102;15.452;2022-11-03T12:03:58;16.20;99.90
21805;DHT22;11064;47.102;15.452;2022-11-03T12:06:32;15.60;99.90
21805;DHT22;11064;47.102;15.452;2022-11-03T12:11:47;16.10;99.90
21805;DHT22;11064;47.102;15.452;2022-11-03T12:14:33;16.20;99.90
21805;DHT22;11064;47.102;15.452;2022-11-03T12:19:53;16.60;99.90
21805;DHT22;11064;47.102;15.452;2022-11-03T12:24:52;16.70;99.90
21805;DHT22;11064;47.102;15.452;2022-11-03T12:29:57;16.30;99.90
21805;DHT22;11064;47.102;15.452;2022-11-03T12:32:24;16.00;99.90
21805;DHT22;11064;47.102;15.452;2022-11-03T12:34:50;15.10;99.90
21805;DHT22;11064;47.102;15.452;2022-11-03T12:37:16;14.90;99.90
21805;DHT22;11064;47.102;15.452;2022-11-03T12:39:41;14.70;99.90
21805;DHT22;11064;47.102;15.452;2022-11-03T12:42:07;14.60;99.90
21805;DHT22;11064;47.102;15.452;2022-11-03T12:44:33;14.80;99.90
21805;DHT22;11064;47.102;15.452;2022-11-03T12:46:59;14.80;99.90
21805;DHT22;11064;47.102;15.452;2022-11-03T12:49:26;14.60;99.90
21805;DHT22;11064;47.102;15.452;2022-11-03T12:51:52;14.60;99.90
21805;DHT22;11064;47.102;15.452;2022-11-03T12:54:18;14.70;99.90
21805;DHT22;11064;47.102;15.452;2022-11-03T12:56:44;14.70;99.90
21805;DHT22;11064;47.102;15.452;2022-11-03T12:59:10;14.90;99.90
21805;DHT22;11064;47.102;15.452;2022-11-03T13:01:35;15.10;99.90
21805;DHT22;11064;47.102;15.452;2022-11-03T13:04:02;15.20;99.90
21805;DHT22;11064;47.102;15.452;2022-11-03T13:06:30;15.20;99.90
21805;DHT22;11064;47.102;15.452;2022-11-03T13:08:56;14.90;99.90
21805;DHT22;11064;47.102;15.452;2022-11-03T13:11:22;14.70;99.90
21805;DHT22;11064;47.102;15.452;2022-11-03T13:14:07;14.50;99.90
21805;DHT22;11064;47.102;15.452;2022-11-03T13:16:32;14.50;99.90
21805;DHT22;11064;47.102;15.452;2022-11-03T13:18:58;14.70;99.90
21805;DHT22;11064;47.102;15.452;2022-11-03T13:21:24;14.90;99.90
21805;DHT22;11064;47.102;15.452;2022-11-03T13:23:51;15.00;99.90
21805;DHT22;11064;47.102;15.452;2022-11-03T13:26:18;14.80;99.90
21805;DHT22;11064;47.102;15.452;2022-11-03T13:28:44;14.80;99.90
21805;DHT22;11064;47.102;15.452;2022-11-03T13:31:10;14.70;99.90
21805;DHT22;11064;47.102;15.452;2022-11-03T13:33:37;14.80;99.90
21805;DHT22;11064;47.102;15.452;2022-11-03T13:36:03;14.50;99.90
21805;DHT22;11064;47.102;15.452;2022-11-03T13:38:29;14.20;99.90
21805;DHT22;11064;47.102;15.452;2022-11-03T13:40:55;14.30;99.90
21805;DHT22;11064;47.102;15.452;2022-11-03T13:43:21;14.50;99.90
21805;DHT22;11064;47.102;15.452;2022-11-03T13:45:47;14.60;99.90
21805;DHT22;11064;47.102;15.452;2022-11-03T13:48:12;14.80;99.90
21805;DHT22;11064;47.102;15.452;2022-11-03T13:50:38;14.90;99.90
21805;DHT22;11064;47.102;15.452;2022-11-03T13:53:05;14.90;99.90
21805;DHT22;11064;47.102;15.452;2022-11-03T13:55:31;14.70;99.90
21805;DHT22;11064;47.102;15.452;2022-11-03T13:57:57;14.40;99.90
21805;DHT22;11064;47.102;15.452;2022-11-03T14:00:23;14.30;99.90
21805;DHT22;11064;47.102;15.452;2022-11-03T14:02:48;14.30;99.90
21805;DHT22;11064;47.102;15.452;2022-11-03T14:05:15;14.20;99.90
21805;DHT22;11064;47.102;15.452;2022-11-03T14:07:41;14.30;99.90
21805;DHT22;11064;47.102;15.452;2022-11-03T14:10:07;14.30;99.90
21805;DHT22;11064;47.102;15.452;2022-11-03T14:12:33;14.30;99.90
21805;DHT22;11064;47.102;15.452;2022-11-03T14:15:07;14.20;99.90
21805;DHT22;11064;47.102;15.452;2022-11-03T14:17:33;14.10;99.90
21805;DHT22;11064;47.102;15.452;2022-11-03T14:20:01;14.20;99.90
21805;DHT22;11064;47.102;15.452;2022-11-03T14:22:28;14.10;99.90
21805;DHT22;11064;47.102;15.452;2022-11-03T14:24:57;14.10;99.90
21805;DHT22;11064;47.102;15.452;2022-11-03T14:27:23;14.00;99.90
21805;DHT22;11064;47.102;15.452;2022-11-03T14:29:49;14.00;99.90
21805;DHT22;11064;47.102;15.452;2022-11-03T14:32:16;14.00;99.90
21805;DHT22;11064;47.102;15.452;2022-11-03T14:34:42;14.00;99.90
21805;DHT22;11064;47.102;15.452;2022-11-03T14:37:08;14.00;99.90
21805;DHT22;11064;47.102;15.452;2022-11-03T14:39:36;14.00;99.90
21805;DHT22;11064;47.102;15.452;2022-11-03T14:42:03;14.10;99.90
21805;DHT22;11064;47.102;15.452;2022-11-03T14:44:37;14.00;99.90
21805;DHT22;11064;47.102;15.452;2022-11-03T14:47:05;13.90;99.90
21805;DHT22;11064;47.102;15.452;2022-11-03T14:49:33;13.80;99.90
21805;DHT22;11064;47.102;15.452;2022-11-03T14:52:00;13.80;99.90
21805;DHT22;11064;47.102;15.452;2022-11-03T14:54:28;13.70;99.90
21805;DHT22;11064;47.102;15.452;2022-11-03T14:56:54;13.70;99.90
21805;DHT22;11064;47.102;15.452;2022-11-03T14:59:20;13.50;99.90
21805;DHT22;11064;47.102;15.452;2022-11-03T15:01:48;13.50;99.90
21805;DHT22;11064;47.102;15.452;2022-11-03T15:04:14;13.40;99.90
21805;DHT22;11064;47.102;15.452;2022-11-03T15:06:40;13.40;99.90
21805;DHT22;11064;47.102;15.452;2022-11-03T15:09:07;13.20;99.90
21805;DHT22;11064;47.102;15.452;2022-11-03T15:11:34;13.20;99.90
21805;DHT22;11064;47.102;15.452;2022-11-03T15:14:00;13.10;99.90
21805;DHT22;11064;47.102;15.452;2022-11-03T15:16:27;13.10;99.90
21805;DHT22;11064;47.102;15.452;2022-11-03T15:18:53;13.00;99.90
21805;DHT22;11064;47.102;15.452;2022-11-03T15:21:19;13.00;99.90
21805;DHT22;11064;47.102;15.452;2022-11-03T15:23:45;12.90;99.90
21805;DHT22;11064;47.102;15.452;2022-11-03T15:26:10;12.80;99.90
21805;DHT22;11064;47.102;15.452;2022-11-03T15:28:39;12.80;99.90
21805;DHT22;11064;47.102;15.452;2022-11-03T15:31:07;12.80;99.90
21805;DHT22;11064;47.102;15.452;2022-11-03T15:33:33;12.80;99.90
21805;DHT22;11064;47.102;15.452;2022-11-03T15:36:03;12.90;99.90
21805;DHT22;11064;47.102;15.452;2022-11-03T15:38:31;12.90;99.90
21805;DHT22;11064;47.102;15.452;2022-11-03T15:40:58;12.80;99.90
21805;DHT22;11064;47.102;15.452;2022-11-03T15:43:41;12.80;99.90
21805;DHT22;11064;47.102;15.452;2022-11-03T15:46:07;12.80;99.90
21805;DHT22;11064;47.102;15.452;2022-11-03T15:48:34;12.80;99.90
21805;DHT22;11064;47.102;15.452;2022-11-03T15:51:00;12.80;99.90
21805;DHT22;11064;47.102;15.452;2022-11-03T15:53:26;12.80;99.90
21805;DHT22;11064;47.102;15.452;2022-11-03T15:55:52;12.80;99.90
21805;DHT22;11064;47.102;15.452;2022-11-03T15:58:18;12.80;99.90
21805;DHT22;11064;47.102;15.452;2022-11-03T16:00:43;12.80;99.90
21805;DHT22;11064;47.102;15.452;2022-11-03T16:03:09;12.80;99.90
21805;DHT22;11064;47.102;15.452;2022-11-03T16:05:35;12.80;99.90
21805;DHT22;11064;47.102;15.452;2022-11-03T16:08:01;12.80;99.90
21805;DHT22;11064;47.102;15.452;2022-11-03T16:10:27;12.80;99.90
21805;DHT22;11064;47.102;15.452;2022-11-03T16:12:53;12.70;99.90
21805;DHT22;11064;47.102;15.452;2022-11-03T16:15:19;12.70;99.90
21805;DHT22;11064;47.102;15.452;2022-11-03T16:17:44;12.70;99.90
21805;DHT22;11064;47.102;15.452;2022-11-03T16:20:10;12.70;99.90
21805;DHT22;11064;47.102;15.452;2022-11-03T16:22:36;12.70;99.90
21805;DHT22;11064;47.102;15.452;2022-11-03T16:25:02;12.70;99.90
21805;DHT22;11064;47.102;15.452;2022-11-03T16:27:28;12.80;99.90
21805;DHT22;11064;47.102;15.452;2022-11-03T16:29:54;12.80;99.90
21805;DHT22;11064;47.102;15.452;2022-11-03T16:32:21;12.80;99.90
21805;DHT22;11064;47.102;15.452;2022-11-03T16:34:47;12.80;99.90
21805;DHT22;11064;47.102;15.452;2022-11-03T16:37:14;12.80;99.90
21805;DHT22;11064;47.102;15.452;2022-11-03T16:39:40;12.80;99.90
21805;DHT22;11064;47.102;15.452;2022-11-03T16:42:06;12.80;99.90
21805;DHT22;11064;47.102;15.452;2022-11-03T16:44:32;12.80;99.90
21805;DHT22;11064;47.102;15.452;2022-11-03T16:46:59;12.80;99.90
21805;DHT22;11064;47.102;15.452;2022-11-03T16:49:25;12.80;99.90
21805;DHT22;11064;47.102;15.452;2022-11-03T16:51:51;12.80;99.90
21805;DHT22;11064;47.102;15.452;2022-11-03T16:54:17;12.90;99.90
21805;DHT22;11064;47.102;15.452;2022-11-03T16:56:43;12.80;99.90
21805;DHT22;11064;47.102;15.452;2022-11-03T16:59:09;12.90;99.90
21805;DHT22;11064;47.102;15.452;2022-11-03T17:01:35;12.90;99.90
21805;DHT22;11064;47.102;15.452;2022-11-03T17:04:01;12.80;99.90
21805;DHT22;11064;47.102;15.452;2022-11-03T17:06:27;12.80;99.90
21805;DHT22;11064;47.102;15.452;2022-11-03T17:08:53;12.70;99.90
21805;DHT22;11064;47.102;15.452;2022-11-03T17:11:19;12.60;99.90
21805;DHT22;11064;47.102;15.452;2022-11-03T17:14:09;12.50;99.90
21805;DHT22;11064;47.102;15.452;2022-11-03T17:16:39;12.50;99.90
21805;DHT22;11064;47.102;15.452;2022-11-03T17:19:07;12.50;99.90
21805;DHT22;11064;47.102;15.452;2022-11-03T17:21:33;12.40;99.90
21805;DHT22;11064;47.102;15.452;2022-11-03T17:23:59;12.40;99.90
21805;DHT22;11064;47.102;15.452;2022-11-03T17:26:36;12.40;99.90
21805;DHT22;11064;47.102;15.452;2022-11-03T17:29:03;12.30;99.90
21805;DHT22;11064;47.102;15.452;2022-11-03T17:31:30;12.10;99.90
21805;DHT22;11064;47.102;15.452;2022-11-03T17:33:56;12.00;99.90
21805;DHT22;11064;47.102;15.452;2022-11-03T17:36:22;12.00;99.90
21805;DHT22;11064;47.102;15.452;2022-11-03T17:38:49;12.00;99.90
21805;DHT22;11064;47.102;15.452;2022-11-03T17:41:15;12.00;99.90
21805;DHT22;11064;47.102;15.452;2022-11-03T17:43:41;12.10;99.90
21805;DHT22;11064;47.102;15.452;2022-11-03T17:46:07;12.20;99.90
21805;DHT22;11064;47.102;15.452;2022-11-03T17:48:33;12.20;99.90
21805;DHT22;11064;47.102;15.452;2022-11-03T17:50:59;12.20;99.90
21805;DHT22;11064;47.102;15.452;2022-11-03T17:53:31;12.20;99.90
21805;DHT22;11064;47.102;15.452;2022-11-03T17:55:59;12.00;99.90
21805;DHT22;11064;47.102;15.452;2022-11-03T17:58:31;11.90;99.90
21805;DHT22;11064;47.102;15.452;2022-11-03T18:01:01;11.80;99.90
21805;DHT22;11064;47.102;15.452;2022-11-03T18:03:28;11.80;99.90
21805;DHT22;11064;47.102;15.452;2022-11-03T18:05:55;11.70;99.90
21805;DHT22;11064;47.102;15.452;2022-11-03T18:08:22;11.60;99.90
21805;DHT22;11064;47.102;15.452;2022-11-03T18:10:52;11.50;99.90
21805;DHT22;11064;47.102;15.452;2022-11-03T18:13:28;11.40;99.90
21805;DHT22;11064;47.102;15.452;2022-11-03T18:16:09;11.40;99.90
21805;DHT22;11064;47.102;15.452;2022-11-03T18:18:39;11.30;99.90
21805;DHT22;11064;47.102;15.452;2022-11-03T18:21:14;11.10;99.90
21805;DHT22;11064;47.102;15.452;2022-11-03T18:23:41;11.10;99.90
21805;DHT22;11064;47.102;15.452;2022-11-03T18:26:21;11.00;99.90
21805;DHT22;11064;47.102;15.452;2022-11-03T18:28:48;10.90;99.90
21805;DHT22;11064;47.102;15.452;2022-11-03T18:31:29;10.90;99.90
21805;DHT22;11064;47.102;15.452;2022-11-03T18:34:03;10.90;99.90
21805;DHT22;11064;47.102;15.452;2022-11-03T18:36:31;10.90;99.90
21805;DHT22;11064;47.102;15.452;2022-11-03T18:38:59;11.10;99.90
21805;DHT22;11064;47.102;15.452;2022-11-03T18:41:27;11.10;99.90
21805;DHT22;11064;47.102;15.452;2022-11-03T18:46:40;11.00;99.90
21805;DHT22;11064;47.102;15.452;2022-11-03T18:49:06;10.90;99.90
21805;DHT22;11064;47.102;15.452;2022-11-03T18:51:33;10.90;99.90
21805;DHT22;11064;47.102;15.452;2022-11-03T18:53:59;10.80;99.90
21805;DHT22;11064;47.102;15.452;2022-11-03T18:56:26;10.70;99.90
21805;DHT22;11064;47.102;15.452;2022-11-03T18:58:53;10.80;99.90
21805;DHT22;11064;47.102;15.452;2022-11-03T19:01:25;10.70;99.90
21805;DHT22;11064;47.102;15.452;2022-11-03T19:03:52;10.70;99.90
21805;DHT22;11064;47.102;15.452;2022-11-03T19:06:19;10.70;99.90
21805;DHT22;11064;47.102;15.452;2022-11-03T19:08:45;10.70;99.90
21805;DHT22;11064;47.102;15.452;2022-11-03T19:11:13;10.70;99.90
21805;DHT22;11064;47.102;15.452;2022-11-03T19:13:42;10.70;99.90
21805;DHT22;11064;47.102;15.452;2022-11-03T19:16:21;10.80;99.90
21805;DHT22;11064;47.102;15.452;2022-11-03T19:18:49;10.90;99.90
21805;DHT22;11064;47.102;15.452;2022-11-03T19:21:20;10.90;99.90
21805;DHT22;11064;47.102;15.452;2022-11-03T19:23:48;11.00;99.90
21805;DHT22;11064;47.102;15.452;2022-11-03T19:26:21;11.00;99.90
21805;DHT22;11064;47.102;15.452;2022-11-03T19:28:57;11.10;99.90
21805;DHT22;11064;47.102;15.452;2022-11-03T19:31:32;11.10;99.90
21805;DHT22;11064;47.102;15.452;2022-11-03T19:33:59;11.10;99.90
21805;DHT22;11064;47.102;15.452;2022-11-03T19:36:27;11.20;99.90
21805;DHT22;11064;47.102;15.452;2022-11-03T19:38:53;11.10;99.90
21805;DHT22;11064;47.102;15.452;2022-11-03T19:41:19;11.00;99.90
21805;DHT22;11064;47.102;15.452;2022-11-03T19:44:11;11.00;99.90
21805;DHT22;11064;47.102;15.452;2022-11-03T19:46:39;11.00;99.90
21805;DHT22;11064;47.102;15.452;2022-11-03T19:49:05;11.00;99.90
21805;DHT22;11064;47.102;15.452;2022-11-03T19:51:33;10.90;99.90
21805;DHT22;11064;47.102;15.452;2022-11-03T19:54:03;10.90;99.90
21805;DHT22;11064;47.102;15.452;2022-11-03T19:56:29;10.90;99.90
21805;DHT22;11064;47.102;15.452;2022-11-03T19:58:55;10.90;99.90
21805;DHT22;11064;47.102;15.452;2022-11-03T20:01:22;10.90;99.90
21805;DHT22;11064;47.102;15.452;2022-11-03T20:03:48;10.90;99.90
21805;DHT22;11064;47.102;15.452;2022-11-03T20:06:13;10.90;99.90
21805;DHT22;11064;47.102;15.452;2022-11-03T20:08:39;10.80;99.90
21805;DHT22;11064;47.102;15.452;2022-11-03T20:11:06;10.80;99.90
21805;DHT22;11064;47.102;15.452;2022-11-03T20:13:38;10.80;99.90
21805;DHT22;11064;47.102;15.452;2022-11-03T20:16:15;10.80;99.90
21805;DHT22;11064;47.102;15.452;2022-11-03T20:18:42;10.80;99.90
21805;DHT22;11064;47.102;15.452;2022-11-03T20:21:15;10.90;99.90
21805;DHT22;11064;47.102;15.452;2022-11-03T20:23:43;10.90;99.90
21805;DHT22;11064;47.102;15.452;2022-11-03T20:26:18;10.90;99.90
21805;DHT22;11064;47.102;15.452;2022-11-03T20:28:45;10.90;99.90
21805;DHT22;11064;47.102;15.452;2022-11-03T20:31:13;11.00;99.90
21805;DHT22;11064;47.102;15.452;2022-11-03T20:33:40;11.00;99.90
21805;DHT22;11064;47.102;15.452;2022-11-03T20:36:14;10.90;99.90
21805;DHT22;11064;47.102;15.452;2022-11-03T20:38:49;10.90;99.90
21805;DHT22;11064;47.102;15.452;2022-11-03T20:41:16;10.90;99.90
21805;DHT22;11064;47.102;15.452;2022-11-03T20:43:44;10.90;99.90
21805;DHT22;11064;47.102;15.452;2022-11-03T20:46:24;10.90;99.90
21805;DHT22;11064;47.102;15.452;2022-11-03T20:48:51;10.80;99.90
21805;DHT22;11064;47.102;15.452;2022-11-03T20:51:25;10.80;99.90
21805;DHT22;11064;47.102;15.452;2022-11-03T20:53:52;10.80;99.90
21805;DHT22;11064;47.102;15.452;2022-11-03T20:56:23;10.90;99.90
21805;DHT22;11064;47.102;15.452;2022-11-03T20:58:49;10.90;99.90
21805;DHT22;11064;47.102;15.452;2022-11-03T21:01:22;10.90;99.90
21805;DHT22;11064;47.102;15.452;2022-11-03T21:03:48;11.00;99.90
21805;DHT22;11064;47.102;15.452;2022-11-03T21:06:16;11.00;99.90
21805;DHT22;11064;47.102;15.452;2022-11-03T21:08:44;10.90;99.90
21805;DHT22;11064;47.102;15.452;2022-11-03T21:11:19;10.70;99.90
21805;DHT22;11064;47.102;15.452;2022-11-03T21:13:49;10.60;99.90
21805;DHT22;11064;47.102;15.452;2022-11-03T21:16:15;10.50;99.90
21805;DHT22;11064;47.102;15.452;2022-11-03T21:18:59;10.40;99.90
21805;DHT22;11064;47.102;15.452;2022-11-03T21:21:43;10.40;99.90